sensor_id;sensor_type;location;lat;lon;timestamp;P1;durP1;ratioP1;P2;durP2;ratioP2
77802;SDS011;66993;48.256;16.422;2023-07-28T00:00:47;4.1;;;2.2;;
77802;SDS011;66993;48.256;16.422;2023-07-28T00:05:48;3.7;;;2.2;;
77802;SDS011;66993;48.256;16.422;2023-07-28T00:10:49;4.1;;;2.3;;
77802;SDS011;66993;48.256;16.422;2023-07-28T00:15:50;3.7;;;2.3;;
77802;SDS011;66993;48.256;16.422;2023-07-28T00:20:51;3.9;;;2.1;;
77802;SDS011;66993;48.256;16.422;2023-07-28T00:25:53;4.3;;;2.3;;
77802;SDS011;66993;48.256;16.422;2023-07-28T00:30:55;3.8;;;2.2;;
77802;SDS011;66993;48.256;16.422;2023-07-28T00:35:55;4.9;;;2.5;;
77802;SDS011;66993;48.256;16.422;2023-07-28T00:40:57;3.8;;;2.2;;
77802;SDS011;66993;48.256;16.422;2023-07-28T00:45:58;4.9;;;2.4;;
77802;SDS011;66993;48.256;16.422;2023-07-28T00:50:59;3.9;;;2.3;;
77802;SDS011;66993;48.256;16.422;2023-07-28T00:56:00;4.9;;;2.0;;
77802;SDS011;66993;48.256;16.422;2023-07-28T01:01:02;4.8;;;2.4;;
77802;SDS011;66993;48.256;16.422;2023-07-28T01:06:07;6.0;;;2.4;;
77802;SDS011;66993;48.256;16.422;2023-07-28T01:11:04;5.4;;;2.3;;
77802;SDS011;66993;48.256;16.422;2023-07-28T01:16:05;4.4;;;2.3;;
77802;SDS011;66993;48.256;16.422;2023-07-28T01:21:08;5.0;;;2.2;;
77802;SDS011;66993;48.256;16.422;2023-07-28T01:26:08;4.2;;;2.5;;
77802;SDS011;66993;48.256;16.422;2023-07-28T01:31:09;4.5;;;2.6;;
77802;SDS011;66993;48.256;16.422;2023-07-28T01:36:10;4.0;;;2.4;;
77802;SDS011;66993;48.256;16.422;2023-07-28T01:41:12;4.8;;;2.5;;
77802;SDS011;66993;48.256;16.422;2023-07-28T01:46:13;4.1;;;2.5;;
77802;SDS011;66993;48.256;16.422;2023-07-28T01:51:15;4.8;;;2.6;;
77802;SDS011;66993;48.256;16.422;2023-07-28T01:56:15;4.5;;;2.7;;
77802;SDS011;66993;48.256;16.422;2023-07-28T02:01:18;4.2;;;2.5;;
77802;SDS011;66993;48.256;16.422;2023-07-28T02:06:18;4.5;;;2.6;;
77802;SDS011;66993;48.256;16.422;2023-07-28T02:11:19;4.5;;;2.4;;
77802;SDS011;66993;48.256;16.422;2023-07-28T02:16:20;4.9;;;2.4;;
77802;SDS011;66993;48.256;16.422;2023-07-28T02:21:23;6.1;;;2.6;;
77802;SDS011;66993;48.256;16.422;2023-07-28T02:26:23;5.0;;;2.5;;
77802;SDS011;66993;48.256;16.422;2023-07-28T02:31:24;4.8;;;2.4;;
77802;SDS011;66993;48.256;16.422;2023-07-28T02:36:26;4.8;;;2.5;;
77802;SDS011;66993;48.256;16.422;2023-07-28T02:41:27;5.2;;;2.7;;
77802;SDS011;66993;48.256;16.422;2023-07-28T02:46:28;4.6;;;2.5;;
77802;SDS011;66993;48.256;16.422;2023-07-28T02:51:30;4.5;;;2.4;;
77802;SDS011;66993;48.256;16.422;2023-07-28T02:56:30;4.4;;;2.4;;
77802;SDS011;66993;48.256;16.422;2023-07-28T03:01:32;4.1;;;2.4;;
77802;SDS011;66993;48.256;16.422;2023-07-28T03:06:33;4.1;;;2.4;;
77802;SDS011;66993;48.256;16.422;2023-07-28T03:11:36;4.0;;;2.4;;
77802;SDS011;66993;48.256;16.422;2023-07-28T03:16:35;4.4;;;2.5;;
77802;SDS011;66993;48.256;16.422;2023-07-28T03:21:37;4.8;;;2.4;;
77802;SDS011;66993;48.256;16.422;2023-07-28T03:26:38;5.5;;;2.4;;
77802;SDS011;66993;48.256;16.422;2023-07-28T03:31:39;5.8;;;2.8;;
77802;SDS011;66993;48.256;16.422;2023-07-28T03:36:40;4.8;;;2.7;;
77802;SDS011;66993;48.256;16.422;2023-07-28T03:41:42;4.9;;;2.7;;
77802;SDS011;66993;48.256;16.422;2023-07-28T03:46:43;4.6;;;2.8;;
77802;SDS011;66993;48.256;16.422;2023-07-28T03:51:44;4.4;;;2.4;;
77802;SDS011;66993;48.256;16.422;2023-07-28T03:56:45;4.2;;;2.4;;
77802;SDS011;66993;48.256;16.422;2023-07-28T04:01:46;4.3;;;2.6;;
77802;SDS011;66993;48.256;16.422;2023-07-28T04:06:49;4.6;;;2.8;;
77802;SDS011;66993;48.256;16.422;2023-07-28T04:11:49;5.8;;;2.7;;
77802;SDS011;66993;48.256;16.422;2023-07-28T04:16:50;4.6;;;2.5;;
77802;SDS011;66993;48.256;16.422;2023-07-28T04:21:52;4.9;;;2.6;;
77802;SDS011;66993;48.256;16.422;2023-07-28T04:26:53;5.1;;;2.7;;
77802;SDS011;66993;48.256;16.422;2023-07-28T04:31:54;4.7;;;2.5;;
77802;SDS011;66993;48.256;16.422;2023-07-28T04:36:55;5.7;;;2.8;;
77802;SDS011;66993;48.256;16.422;2023-07-28T04:41:57;6.0;;;2.8;;
77802;SDS011;66993;48.256;16.422;2023-07-28T04:46:58;5.0;;;2.8;;
77802;SDS011;66993;48.256;16.422;2023-07-28T04:52:00;5.5;;;2.8;;
77802;SDS011;66993;48.256;16.422;2023-07-28T04:57:00;5.6;;;2.8;;
77802;SDS011;66993;48.256;16.422;2023-07-28T05:02:02;4.7;;;2.5;;
77802;SDS011;66993;48.256;16.422;2023-07-28T05:07:03;4.0;;;2.3;;
77802;SDS011;66993;48.256;16.422;2023-07-28T05:12:04;5.5;;;3.0;;
77802;SDS011;66993;48.256;16.422;2023-07-28T05:17:05;4.9;;;2.8;;
77802;SDS011;66993;48.256;16.422;2023-07-28T05:22:07;6.0;;;2.7;;
77802;SDS011;66993;48.256;16.422;2023-07-28T05:27:08;5.0;;;3.2;;
77802;SDS011;66993;48.256;16.422;2023-07-28T05:32:09;4.5;;;2.7;;
77802;SDS011;66993;48.256;16.422;2023-07-28T05:37:10;7.5;;;3.3;;
77802;SDS011;66993;48.256;16.422;2023-07-28T05:42:12;5.0;;;3.1;;
77802;SDS011;66993;48.256;16.422;2023-07-28T05:47:13;5.8;;;3.1;;
77802;SDS011;66993;48.256;16.422;2023-07-28T05:52:14;7.3;;;3.0;;
77802;SDS011;66993;48.256;16.422;2023-07-28T05:57:15;6.1;;;3.1;;
77802;SDS011;66993;48.256;16.422;2023-07-28T06:02:17;6.0;;;2.8;;
77802;SDS011;66993;48.256;16.422;2023-07-28T06:07:18;5.9;;;3.1;;
77802;SDS011;66993;48.256;16.422;2023-07-28T06:12:19;6.2;;;2.8;;
77802;SDS011;66993;48.256;16.422;2023-07-28T06:17:20;4.7;;;2.7;;
77802;SDS011;66993;48.256;16.422;2023-07-28T06:22:22;7.5;;;2.7;;
77802;SDS011;66993;48.256;16.422;2023-07-28T06:27:23;5.8;;;2.6;;
77802;SDS011;66993;48.256;16.422;2023-07-28T06:32:25;5.7;;;2.5;;
77802;SDS011;66993;48.256;16.422;2023-07-28T06:37:25;6.1;;;2.6;;
77802;SDS011;66993;48.256;16.422;2023-07-28T06:42:26;7.0;;;2.9;;
77802;SDS011;66993;48.256;16.422;2023-07-28T06:47:28;4.5;;;2.6;;
77802;SDS011;66993;48.256;16.422;2023-07-28T06:52:29;5.6;;;2.6;;
77802;SDS011;66993;48.256;16.422;2023-07-28T06:57:30;5.4;;;2.8;;
77802;SDS011;66993;48.256;16.422;2023-07-28T07:02:31;7.3;;;2.7;;
77802;SDS011;66993;48.256;16.422;2023-07-28T07:07:33;5.3;;;2.7;;
77802;SDS011;66993;48.256;16.422;2023-07-28T07:12:35;5.3;;;2.7;;
77802;SDS011;66993;48.256;16.422;2023-07-28T07:17:35;6.2;;;3.0;;
77802;SDS011;66993;48.256;16.422;2023-07-28T07:22:36;4.1;;;2.4;;
77802;SDS011;66993;48.256;16.422;2023-07-28T07:27:37;5.0;;;2.5;;
77802;SDS011;66993;48.256;16.422;2023-07-28T07:32:39;4.4;;;2.5;;
77802;SDS011;66993;48.256;16.422;2023-07-28T07:37:40;4.9;;;2.7;;
77802;SDS011;66993;48.256;16.422;2023-07-28T07:42:42;5.7;;;2.7;;
77802;SDS011;66993;48.256;16.422;2023-07-28T07:47:43;4.9;;;2.2;;
77802;SDS011;66993;48.256;16.422;2023-07-28T07:52:44;5.4;;;2.5;;
77802;SDS011;66993;48.256;16.422;2023-07-28T07:57:45;5.3;;;2.6;;
77802;SDS011;66993;48.256;16.422;2023-07-28T08:02:46;4.9;;;2.5;;
77802;SDS011;66993;48.256;16.422;2023-07-28T08:07:48;5.8;;;2.7;;
77802;SDS011;66993;48.256;16.422;2023-07-28T08:12:49;5.4;;;2.4;;
77802;SDS011;66993;48.256;16.422;2023-07-28T08:17:50;5.4;;;2.5;;
77802;SDS011;66993;48.256;16.422;2023-07-28T08:22:52;4.8;;;2.6;;
77802;SDS011;66993;48.256;16.422;2023-07-28T08:27:53;3.8;;;2.1;;
77802;SDS011;66993;48.256;16.422;2023-07-28T08:32:54;5.2;;;2.3;;
77802;SDS011;66993;48.256;16.422;2023-07-28T08:37:55;5.1;;;2.1;;
77802;SDS011;66993;48.256;16.422;2023-07-28T08:42:56;5.0;;;2.2;;
77802;SDS011;66993;48.256;16.422;2023-07-28T08:47:58;4.3;;;2.2;;
77802;SDS011;66993;48.256;16.422;2023-07-28T08:52:59;4.4;;;2.3;;
77802;SDS011;66993;48.256;16.422;2023-07-28T09:03:02;4.1;;;2.1;;
77802;SDS011;66993;48.256;16.422;2023-07-28T09:08:03;4.1;;;2.1;;
77802;SDS011;66993;48.256;16.422;2023-07-28T09:13:04;4.6;;;2.2;;
77802;SDS011;66993;48.256;16.422;2023-07-28T09:18:07;4.5;;;2.3;;
77802;SDS011;66993;48.256;16.422;2023-07-28T09:23:07;4.1;;;2.2;;
77802;SDS011;66993;48.256;16.422;2023-07-28T09:28:07;3.2;;;2.1;;
77802;SDS011;66993;48.256;16.422;2023-07-28T09:33:09;4.4;;;2.4;;
77802;SDS011;66993;48.256;16.422;2023-07-28T09:38:10;3.5;;;2.2;;
77802;SDS011;66993;48.256;16.422;2023-07-28T09:43:11;4.4;;;2.1;;
77802;SDS011;66993;48.256;16.422;2023-07-28T09:48:12;4.0;;;2.4;;
77802;SDS011;66993;48.256;16.422;2023-07-28T09:53:14;5.1;;;2.4;;
77802;SDS011;66993;48.256;16.422;2023-07-28T09:58:16;3.8;;;2.1;;
77802;SDS011;66993;48.256;16.422;2023-07-28T10:03:16;5.5;;;2.4;;
77802;SDS011;66993;48.256;16.422;2023-07-28T10:08:17;4.1;;;2.4;;
77802;SDS011;66993;48.256;16.422;2023-07-28T10:13:19;4.6;;;2.4;;
77802;SDS011;66993;48.256;16.422;2023-07-28T10:18:20;3.9;;;2.4;;
77802;SDS011;66993;48.256;16.422;2023-07-28T10:23:21;3.9;;;2.5;;
77802;SDS011;66993;48.256;16.422;2023-07-28T10:28:26;4.5;;;2.5;;
77802;SDS011;66993;48.256;16.422;2023-07-28T10:33:28;3.5;;;2.2;;
77802;SDS011;66993;48.256;16.422;2023-07-28T10:38:28;4.5;;;2.3;;
77802;SDS011;66993;48.256;16.422;2023-07-28T10:43:26;5.3;;;2.4;;
77802;SDS011;66993;48.256;16.422;2023-07-28T10:48:27;5.3;;;2.4;;
77802;SDS011;66993;48.256;16.422;2023-07-28T10:53:28;4.0;;;2.3;;
77802;SDS011;66993;48.256;16.422;2023-07-28T10:58:31;3.4;;;2.1;;
77802;SDS011;66993;48.256;16.422;2023-07-28T11:03:31;4.2;;;2.1;;
77802;SDS011;66993;48.256;16.422;2023-07-28T11:08:32;5.1;;;2.2;;
77802;SDS011;66993;48.256;16.422;2023-07-28T11:13:33;4.7;;;2.1;;
77802;SDS011;66993;48.256;16.422;2023-07-28T11:18:34;4.0;;;2.2;;
77802;SDS011;66993;48.256;16.422;2023-07-28T11:23:36;4.4;;;2.1;;
77802;SDS011;66993;48.256;16.422;2023-07-28T11:28:37;4.5;;;2.3;;
77802;SDS011;66993;48.256;16.422;2023-07-28T11:33:39;4.5;;;2.0;;
77802;SDS011;66993;48.256;16.422;2023-07-28T11:38:39;3.4;;;2.0;;
77802;SDS011;66993;48.256;16.422;2023-07-28T11:43:41;4.0;;;2.1;;
77802;SDS011;66993;48.256;16.422;2023-07-28T11:48:42;3.5;;;2.0;;
77802;SDS011;66993;48.256;16.422;2023-07-28T11:53:43;3.3;;;1.8;;
77802;SDS011;66993;48.256;16.422;2023-07-28T11:58:44;4.2;;;2.1;;
77802;SDS011;66993;48.256;16.422;2023-07-28T12:03:46;3.9;;;2.1;;
77802;SDS011;66993;48.256;16.422;2023-07-28T12:08:47;3.7;;;1.9;;
77802;SDS011;66993;48.256;16.422;2023-07-28T12:13:48;4.1;;;2.0;;
77802;SDS011;66993;48.256;16.422;2023-07-28T12:18:49;3.8;;;2.2;;
77802;SDS011;66993;48.256;16.422;2023-07-28T12:23:51;4.2;;;2.3;;
77802;SDS011;66993;48.256;16.422;2023-07-28T12:28:52;4.6;;;2.5;;
77802;SDS011;66993;48.256;16.422;2023-07-28T12:33:53;4.8;;;2.5;;
77802;SDS011;66993;48.256;16.422;2023-07-28T12:38:54;6.2;;;2.4;;
77802;SDS011;66993;48.256;16.422;2023-07-28T12:43:56;3.8;;;2.1;;
77802;SDS011;66993;48.256;16.422;2023-07-28T12:48:57;3.8;;;2.4;;
77802;SDS011;66993;48.256;16.422;2023-07-28T12:53:58;4.5;;;2.3;;
77802;SDS011;66993;48.256;16.422;2023-07-28T12:58:59;4.1;;;2.1;;
77802;SDS011;66993;48.256;16.422;2023-07-28T13:04:00;4.6;;;2.3;;
77802;SDS011;66993;48.256;16.422;2023-07-28T13:09:02;5.2;;;2.5;;
77802;SDS011;66993;48.256;16.422;2023-07-28T13:14:03;4.7;;;2.3;;
77802;SDS011;66993;48.256;16.422;2023-07-28T13:19:04;3.9;;;2.2;;
77802;SDS011;66993;48.256;16.422;2023-07-28T13:24:05;5.0;;;2.1;;
77802;SDS011;66993;48.256;16.422;2023-07-28T13:29:07;4.0;;;2.1;;
77802;SDS011;66993;48.256;16.422;2023-07-28T13:34:08;4.2;;;2.3;;
77802;SDS011;66993;48.256;16.422;2023-07-28T13:39:09;3.6;;;2.3;;
77802;SDS011;66993;48.256;16.422;2023-07-28T13:44:10;5.8;;;2.4;;
77802;SDS011;66993;48.256;16.422;2023-07-28T13:49:11;4.7;;;2.8;;
77802;SDS011;66993;48.256;16.422;2023-07-28T13:54:13;4.3;;;2.6;;
77802;SDS011;66993;48.256;16.422;2023-07-28T13:59:14;4.4;;;2.5;;
77802;SDS011;66993;48.256;16.422;2023-07-28T14:04:16;4.7;;;2.3;;
77802;SDS011;66993;48.256;16.422;2023-07-28T14:09:16;4.0;;;2.2;;
77802;SDS011;66993;48.256;16.422;2023-07-28T14:14:18;5.0;;;2.4;;
77802;SDS011;66993;48.256;16.422;2023-07-28T14:19:19;4.3;;;2.6;;
77802;SDS011;66993;48.256;16.422;2023-07-28T14:24:20;4.2;;;2.4;;
77802;SDS011;66993;48.256;16.422;2023-07-28T14:29:21;4.5;;;2.6;;
77802;SDS011;66993;48.256;16.422;2023-07-28T14:34:23;5.0;;;2.6;;
77802;SDS011;66993;48.256;16.422;2023-07-28T14:39:24;5.6;;;2.6;;
77802;SDS011;66993;48.256;16.422;2023-07-28T14:44:25;4.5;;;2.4;;
77802;SDS011;66993;48.256;16.422;2023-07-28T14:49:26;6.3;;;2.9;;
77802;SDS011;66993;48.256;16.422;2023-07-28T14:54:27;4.7;;;2.5;;
77802;SDS011;66993;48.256;16.422;2023-07-28T14:59:29;4.1;;;2.5;;
77802;SDS011;66993;48.256;16.422;2023-07-28T15:04:30;4.5;;;2.7;;
77802;SDS011;66993;48.256;16.422;2023-07-28T15:09:32;4.4;;;2.6;;
77802;SDS011;66993;48.256;16.422;2023-07-28T15:14:33;4.5;;;2.4;;
77802;SDS011;66993;48.256;16.422;2023-07-28T15:19:34;4.5;;;2.8;;
77802;SDS011;66993;48.256;16.422;2023-07-28T15:24:35;4.8;;;2.5;;
77802;SDS011;66993;48.256;16.422;2023-07-28T15:29:37;5.4;;;2.7;;
77802;SDS011;66993;48.256;16.422;2023-07-28T15:34:38;4.0;;;2.4;;
77802;SDS011;66993;48.256;16.422;2023-07-28T15:39:39;5.0;;;2.8;;
77802;SDS011;66993;48.256;16.422;2023-07-28T15:44:40;4.6;;;2.6;;
77802;SDS011;66993;48.256;16.422;2023-07-28T15:49:41;4.3;;;2.6;;
77802;SDS011;66993;48.256;16.422;2023-07-28T15:54:43;5.4;;;2.9;;
77802;SDS011;66993;48.256;16.422;2023-07-28T15:59:45;4.9;;;2.5;;
77802;SDS011;66993;48.256;16.422;2023-07-28T16:04:45;5.1;;;2.5;;
77802;SDS011;66993;48.256;16.422;2023-07-28T16:09:47;5.1;;;2.8;;
77802;SDS011;66993;48.256;16.422;2023-07-28T16:14:48;4.2;;;2.6;;
77802;SDS011;66993;48.256;16.422;2023-07-28T16:19:49;4.4;;;2.7;;
77802;SDS011;66993;48.256;16.422;2023-07-28T16:24:50;4.8;;;2.6;;
77802;SDS011;66993;48.256;16.422;2023-07-28T16:29:51;4.1;;;2.7;;
77802;SDS011;66993;48.256;16.422;2023-07-28T16:34:53;7.7;;;2.8;;
77802;SDS011;66993;48.256;16.422;2023-07-28T16:39:54;5.1;;;2.9;;
77802;SDS011;66993;48.256;16.422;2023-07-28T16:44:55;5.1;;;3.0;;
77802;SDS011;66993;48.256;16.422;2023-07-28T16:49:56;4.1;;;2.6;;
77802;SDS011;66993;48.256;16.422;2023-07-28T16:54:57;5.5;;;2.6;;
77802;SDS011;66993;48.256;16.422;2023-07-28T16:59:59;5.1;;;2.6;;
77802;SDS011;66993;48.256;16.422;2023-07-28T17:05:00;4.7;;;2.6;;
77802;SDS011;66993;48.256;16.422;2023-07-28T17:10:01;5.6;;;2.8;;
77802;SDS011;66993;48.256;16.422;2023-07-28T17:15:02;5.7;;;2.7;;
77802;SDS011;66993;48.256;16.422;2023-07-28T17:20:04;5.1;;;2.8;;
77802;SDS011;66993;48.256;16.422;2023-07-28T17:25:05;6.7;;;3.2;;
77802;SDS011;66993;48.256;16.422;2023-07-28T17:30:07;5.6;;;3.0;;
77802;SDS011;66993;48.256;16.422;2023-07-28T17:35:07;4.8;;;3.0;;
77802;SDS011;66993;48.256;16.422;2023-07-28T17:40:09;5.7;;;2.8;;
77802;SDS011;66993;48.256;16.422;2023-07-28T17:45:10;4.2;;;2.6;;
77802;SDS011;66993;48.256;16.422;2023-07-28T17:50:11;4.4;;;2.7;;
77802;SDS011;66993;48.256;16.422;2023-07-28T17:55:12;4.9;;;2.9;;
77802;SDS011;66993;48.256;16.422;2023-07-28T18:00:14;6.3;;;2.7;;
77802;SDS011;66993;48.256;16.422;2023-07-28T18:05:15;6.5;;;3.0;;
77802;SDS011;66993;48.256;16.422;2023-07-28T18:10:16;5.7;;;2.9;;
77802;SDS011;66993;48.256;16.422;2023-07-28T18:15:17;6.7;;;3.1;;
77802;SDS011;66993;48.256;16.422;2023-07-28T18:20:18;6.0;;;3.1;;
77802;SDS011;66993;48.256;16.422;2023-07-28T18:25:21;6.0;;;3.2;;
77802;SDS011;66993;48.256;16.422;2023-07-28T18:30:22;5.1;;;3.0;;
77802;SDS011;66993;48.256;16.422;2023-07-28T18:35:22;6.9;;;3.0;;
77802;SDS011;66993;48.256;16.422;2023-07-28T18:40:24;6.1;;;3.2;;
77802;SDS011;66993;48.256;16.422;2023-07-28T18:45:25;5.3;;;3.0;;
77802;SDS011;66993;48.256;16.422;2023-07-28T18:50:26;6.2;;;3.0;;
77802;SDS011;66993;48.256;16.422;2023-07-28T18:55:27;5.8;;;2.9;;
77802;SDS011;66993;48.256;16.422;2023-07-28T19:00:29;4.6;;;3.0;;
77802;SDS011;66993;48.256;16.422;2023-07-28T19:05:29;4.4;;;2.9;;
77802;SDS011;66993;48.256;16.422;2023-07-28T19:10:31;4.9;;;3.0;;
77802;SDS011;66993;48.256;16.422;2023-07-28T19:15:32;5.3;;;2.9;;
77802;SDS011;66993;48.256;16.422;2023-07-28T19:20:34;4.8;;;2.7;;
77802;SDS011;66993;48.256;16.422;2023-07-28T19:25:34;4.7;;;3.0;;
77802;SDS011;66993;48.256;16.422;2023-07-28T19:30:36;5.2;;;2.8;;
77802;SDS011;66993;48.256;16.422;2023-07-28T19:35:37;4.6;;;2.6;;
77802;SDS011;66993;48.256;16.422;2023-07-28T19:40:38;4.8;;;2.8;;
77802;SDS011;66993;48.256;16.422;2023-07-28T19:45:39;5.0;;;2.9;;
77802;SDS011;66993;48.256;16.422;2023-07-28T19:50:41;4.6;;;2.6;;
77802;SDS011;66993;48.256;16.422;2023-07-28T19:55:42;5.5;;;2.9;;
77802;SDS011;66993;48.256;16.422;2023-07-28T20:00:43;5.1;;;2.6;;
77802;SDS011;66993;48.256;16.422;2023-07-28T20:05:44;6.2;;;3.0;;
77802;SDS011;66993;48.256;16.422;2023-07-28T20:10:46;4.7;;;2.9;;
77802;SDS011;66993;48.256;16.422;2023-07-28T20:15:47;4.7;;;2.6;;
77802;SDS011;66993;48.256;16.422;2023-07-28T20:20:49;5.1;;;2.7;;
77802;SDS011;66993;48.256;16.422;2023-07-28T20:25:50;5.2;;;2.8;;
77802;SDS011;66993;48.256;16.422;2023-07-28T20:30:51;4.9;;;2.8;;
77802;SDS011;66993;48.256;16.422;2023-07-28T20:35:52;5.9;;;2.8;;
77802;SDS011;66993;48.256;16.422;2023-07-28T20:40:54;5.1;;;2.8;;
77802;SDS011;66993;48.256;16.422;2023-07-28T20:45:55;4.2;;;2.7;;
77802;SDS011;66993;48.256;16.422;2023-07-28T20:50:56;5.3;;;2.9;;
77802;SDS011;66993;48.256;16.422;2023-07-28T20:55:57;4.3;;;2.8;;
77802;SDS011;66993;48.256;16.422;2023-07-28T21:00:58;4.9;;;2.5;;
77802;SDS011;66993;48.256;16.422;2023-07-28T21:05:59;5.2;;;2.8;;
77802;SDS011;66993;48.256;16.422;2023-07-28T21:11:01;5.1;;;2.8;;
77802;SDS011;66993;48.256;16.422;2023-07-28T21:16:02;5.0;;;2.8;;
77802;SDS011;66993;48.256;16.422;2023-07-28T21:21:04;4.6;;;2.7;;
77802;SDS011;66993;48.256;16.422;2023-07-28T21:26:04;4.7;;;2.6;;
77802;SDS011;66993;48.256;16.422;2023-07-28T21:31:06;4.2;;;2.5;;
77802;SDS011;66993;48.256;16.422;2023-07-28T21:36:07;5.7;;;2.7;;
77802;SDS011;66993;48.256;16.422;2023-07-28T21:41:08;5.8;;;2.7;;
77802;SDS011;66993;48.256;16.422;2023-07-28T21:46:09;4.6;;;2.6;;
77802;SDS011;66993;48.256;16.422;2023-07-28T21:51:11;4.7;;;2.6;;
77802;SDS011;66993;48.256;16.422;2023-07-28T21:56:12;4.0;;;2.5;;
77802;SDS011;66993;48.256;16.422;2023-07-28T22:01:13;4.5;;;2.6;;
77802;SDS011;66993;48.256;16.422;2023-07-28T22:06:14;4.3;;;2.7;;
77802;SDS011;66993;48.256;16.422;2023-07-28T22:11:16;5.3;;;2.6;;
77802;SDS011;66993;48.256;16.422;2023-07-28T22:16:17;4.2;;;2.4;;
77802;SDS011;66993;48.256;16.422;2023-07-28T22:21:18;4.1;;;2.4;;
77802;SDS011;66993;48.256;16.422;2023-07-28T22:26:19;4.0;;;2.5;;
77802;SDS011;66993;48.256;16.422;2023-07-28T22:31:21;4.3;;;2.5;;
77802;SDS011;66993;48.256;16.422;2023-07-28T22:36:22;4.1;;;2.6;;
77802;SDS011;66993;48.256;16.422;2023-07-28T22:41:23;5.1;;;2.5;;
77802;SDS011;66993;48.256;16.422;2023-07-28T22:46:24;5.5;;;2.6;;
77802;SDS011;66993;48.256;16.422;2023-07-28T22:51:26;4.8;;;2.6;;
77802;SDS011;66993;48.256;16.422;2023-07-28T22:56:27;4.6;;;2.5;;
77802;SDS011;66993;48.256;16.422;2023-07-28T23:01:28;4.4;;;2.5;;
77802;SDS011;66993;48.256;16.422;2023-07-28T23:06:29;4.9;;;2.8;;
77802;SDS011;66993;48.256;16.422;2023-07-28T23:11:31;5.4;;;2.8;;
77802;SDS011;66993;48.256;16.422;2023-07-28T23:16:31;4.2;;;2.4;;
77802;SDS011;66993;48.256;16.422;2023-07-28T23:21:33;4.8;;;2.7;;
77802;SDS011;66993;48.256;16.422;2023-07-28T23:26:34;4.9;;;2.8;;
77802;SDS011;66993;48.256;16.422;2023-07-28T23:31:35;5.3;;;2.6;;
77802;SDS011;66993;48.256;16.422;2023-07-28T23:36:36;5.1;;;2.8;;
77802;SDS011;66993;48.256;16.422;2023-07-28T23:41:38;4.5;;;2.4;;
77802;SDS011;66993;48.256;16.422;2023-07-28T23:46:39;6.1;;;2.8;;
77802;SDS011;66993;48.256;16.422;2023-07-28T23:51:40;5.2;;;2.9;;
77802;SDS011;66993;48.256;16.422;2023-07-28T23:56:41;4.4;;;2.6;;
